Time;durP1;ratioP1;P1;durP2;ratioP2;P2;SDS_P1;SDS_P2;PMS_P1;PMS_P2;Temp;Humidity;BMP_temperature;BMP_pressure;BME280_temperature;BME280_humidity;BME280_pressure;Samples;Min_cycle;Max_cycle;Signal;HPM_P1;HPM_P2
2021/08/17 00:01:47;;;;;;;9.40;4.70;;;;;;;;;;5058069;28;20244;-61
2021/08/17 00:04:13;;;;;;;6.93;3.30;;;;;;;;;;5058032;28;20653;-61
2021/08/17 00:06:38;;;;;;;7.63;3.33;;;;;;;;;;5057929;28;20240;-60
2021/08/17 00:09:03;;;;;;;5.93;3.17;;;;;;;;;;5058514;28;20224;-62
2021/08/17 00:11:29;;;;;;;6.73;3.67;;;;;;;;;;5058222;28;20217;-60
2021/08/17 00:13:55;;;;;;;5.73;3.33;;;;;;;;;;5058231;28;20673;-61
2021/08/17 00:16:20;;;;;;;7.13;3.60;;;;;;;;;;5057971;28;20224;-60
2021/08/17 00:18:45;;;;;;;5.20;3.53;;;;;;;;;;5057737;28;20601;-61
2021/08/17 00:21:13;;;;;;;6.10;3.80;;;;;;;;;;5058947;28;20227;-61
2021/08/17 00:23:38;;;;;;;5.97;3.00;;;;;;;;;;5078368;28;20269;-61
2021/08/17 00:26:03;;;;;;;7.13;3.77;;;;;;;;;;5078662;28;20466;-61
2021/08/17 00:28:28;;;;;;;10.37;3.97;;;;;;;;;;5068678;28;20619;-61
2021/08/17 00:30:54;;;;;;;5.67;3.17;;;;;;;;;;5057641;28;20303;-61
2021/08/17 00:33:19;;;;;;;4.03;2.40;;;;;;;;;;5058126;28;20655;-61
2021/08/17 00:35:44;;;;;;;6.03;3.57;;;;;;;;;;5057335;28;20256;-61
2021/08/17 00:38:10;;;;;;;4.30;2.93;;;;;;;;;;5057715;28;20209;-61
2021/08/17 00:40:35;;;;;;;3.87;3.10;;;;;;;;;;5057507;28;20246;-61
2021/08/17 00:43:01;;;;;;;5.20;3.73;;;;;;;;;;5057626;28;20626;-61
2021/08/17 00:45:27;;;;;;;4.33;2.97;;;;;;;;;;5057578;28;20490;-61
2021/08/17 00:47:54;;;;;;;11.07;4.07;;;;;;;;;;5057836;28;20236;-61
2021/08/17 00:50:26;;;;;;;11.57;4.13;;;;;;;;;;5057071;28;20997;-61
2021/08/17 00:52:53;;;;;;;5.67;3.67;;;;;;;;;;5056706;28;20932;-61
2021/08/17 00:55:19;;;;;;;5.93;3.60;;;;;;;;;;5058194;28;20485;-61
2021/08/17 00:57:45;;;;;;;4.70;3.40;;;;;;;;;;5057624;28;20842;-61
2021/08/17 01:00:11;;;;;;;4.37;3.03;;;;;;;;;;5057801;28;20221;-61
2021/08/17 01:02:36;;;;;;;9.10;4.57;;;;;;;;;;5057245;28;21027;-61
2021/08/17 01:05:03;;;;;;;6.70;3.87;;;;;;;;;;5057365;28;20461;-61
2021/08/17 01:07:29;;;;;;;5.37;3.50;;;;;;;;;;5056826;28;20309;-59
2021/08/17 01:09:54;;;;;;;6.80;3.50;;;;;;;;;;5057009;28;20517;-61
2021/08/17 01:12:19;;;;;;;8.23;4.17;;;;;;;;;;5057187;28;20214;-62
2021/08/17 01:14:45;;;;;;;5.77;3.57;;;;;;;;;;5056965;28;20659;-62
2021/08/17 01:17:10;;;;;;;6.90;3.37;;;;;;;;;;5057266;28;20562;-61
2021/08/17 01:19:36;;;;;;;10.33;4.50;;;;;;;;;;5056794;28;20322;-61
2021/08/17 01:22:03;;;;;;;6.57;3.77;;;;;;;;;;5065315;28;20215;-61
2021/08/17 01:24:29;;;;;;;5.40;3.57;;;;;;;;;;5076757;28;20508;-62
2021/08/17 01:26:54;;;;;;;6.10;3.40;;;;;;;;;;5076497;28;20496;-62
2021/08/17 01:29:21;;;;;;;6.90;4.03;;;;;;;;;;5061247;28;20213;-61
2021/08/17 01:31:46;;;;;;;4.80;3.23;;;;;;;;;;5055953;28;20310;-62
2021/08/17 01:34:11;;;;;;;6.37;3.43;;;;;;;;;;5058231;28;20493;-62
2021/08/17 01:36:36;;;;;;;8.20;3.27;;;;;;;;;;5042709;28;20239;-62
2021/08/17 01:39:02;;;;;;;4.10;3.07;;;;;;;;;;5048827;28;20678;-62
2021/08/17 01:41:27;;;;;;;5.10;2.97;;;;;;;;;;5070171;28;20235;-62
2021/08/17 01:43:53;;;;;;;8.03;3.20;;;;;;;;;;5063435;28;20250;-62
2021/08/17 01:46:18;;;;;;;6.33;4.13;;;;;;;;;;5063106;28;20216;-62
2021/08/17 01:48:44;;;;;;;8.40;4.20;;;;;;;;;;5069101;28;20293;-62
2021/08/17 01:51:10;;;;;;;13.50;3.83;;;;;;;;;;5068886;28;20615;-62
2021/08/17 01:53:36;;;;;;;4.50;3.50;;;;;;;;;;5063060;28;20541;-62
2021/08/17 01:56:28;;;;;;;5.70;3.10;;;;;;;;;;5061880;28;20463;-62
2021/08/17 01:58:53;;;;;;;6.40;3.40;;;;;;;;;;5063228;28;20908;-62
2021/08/17 02:01:18;;;;;;;4.70;3.43;;;;;;;;;;5069516;28;20561;-62
2021/08/17 02:03:44;;;;;;;3.63;2.80;;;;;;;;;;5066770;28;20599;-62
2021/08/17 02:06:10;;;;;;;5.93;2.93;;;;;;;;;;5070838;28;20253;-62
2021/08/17 02:08:35;;;;;;;17.43;13.77;;;;;;;;;;5065706;28;20230;-62
2021/08/17 02:11:01;;;;;;;11.20;8.17;;;;;;;;;;5069806;28;20528;-62
2021/08/17 02:13:28;;;;;;;11.67;8.40;;;;;;;;;;5064808;28;20220;-62
2021/08/17 02:15:55;;;;;;;11.50;8.93;;;;;;;;;;5062698;28;20238;-61
2021/08/17 02:18:21;;;;;;;13.93;9.17;;;;;;;;;;5067153;28;21026;-62
2021/08/17 02:20:46;;;;;;;14.23;8.63;;;;;;;;;;5069480;28;20462;-62
2021/08/17 02:23:12;;;;;;;11.07;8.73;;;;;;;;;;5064879;28;20222;-62
2021/08/17 02:25:37;;;;;;;11.90;10.10;;;;;;;;;;5062892;28;20659;-62
2021/08/17 02:28:02;;;;;;;13.83;9.80;;;;;;;;;;5066661;28;20316;-62
2021/08/17 02:30:28;;;;;;;15.30;9.27;;;;;;;;;;5069870;28;20208;-61
2021/08/17 02:32:54;;;;;;;11.47;8.13;;;;;;;;;;5065153;28;20215;-61
2021/08/17 02:35:19;;;;;;;17.70;11.33;;;;;;;;;;5063067;28;20541;-61
2021/08/17 02:37:44;;;;;;;9.97;7.73;;;;;;;;;;5049213;28;20296;-61
2021/08/17 02:40:10;;;;;;;12.23;7.27;;;;;;;;;;5067733;28;20284;-61
2021/08/17 02:42:37;;;;;;;13.40;7.63;;;;;;;;;;5068598;28;20228;-60
2021/08/17 02:45:02;;;;;;;12.17;7.13;;;;;;;;;;5064496;28;20465;-61
2021/08/17 02:47:28;;;;;;;10.63;5.83;;;;;;;;;;5062477;28;20467;-61
2021/08/17 02:49:54;;;;;;;10.10;5.70;;;;;;;;;;5066625;28;20615;-61
2021/08/17 02:52:19;;;;;;;10.93;5.87;;;;;;;;;;5069801;28;20454;-61
2021/08/17 02:54:44;;;;;;;6.87;4.97;;;;;;;;;;5063953;28;20224;-61
2021/08/17 02:57:10;;;;;;;7.90;4.73;;;;;;;;;;5061609;28;20298;-61
2021/08/17 02:59:35;;;;;;;9.33;5.33;;;;;;;;;;5067485;28;20291;-61
2021/08/17 03:02:01;;;;;;;8.50;3.87;;;;;;;;;;5068820;28;20243;-61
2021/08/17 03:04:26;;;;;;;7.87;3.93;;;;;;;;;;5056595;28;20216;-62
2021/08/17 03:06:52;;;;;;;4.30;3.63;;;;;;;;;;5068415;28;20540;-62
2021/08/17 03:09:17;;;;;;;8.40;4.17;;;;;;;;;;5062180;28;20250;-61
2021/08/17 03:11:42;;;;;;;6.00;3.90;;;;;;;;;;5073554;28;20292;-62
2021/08/17 03:14:08;;;;;;;5.57;3.40;;;;;;;;;;5061821;28;20269;-61
2021/08/17 03:16:33;;;;;;;15.93;4.27;;;;;;;;;;5062576;28;20673;-62
2021/08/17 03:19:00;;;;;;;7.20;4.00;;;;;;;;;;5063204;28;20240;-60
2021/08/17 03:21:25;;;;;;;7.33;4.07;;;;;;;;;;5072105;28;20215;-60
2021/08/17 03:23:51;;;;;;;8.27;4.33;;;;;;;;;;5075153;28;20463;-60
2021/08/17 03:26:16;;;;;;;5.60;3.10;;;;;;;;;;5062713;28;20235;-61
2021/08/17 03:28:41;;;;;;;6.13;3.50;;;;;;;;;;5074432;28;20223;-60
2021/08/17 03:31:07;;;;;;;6.53;4.23;;;;;;;;;;5062486;28;20235;-61
2021/08/17 03:33:33;;;;;;;7.90;3.27;;;;;;;;;;5067616;28;20220;-61
2021/08/17 03:35:58;;;;;;;6.10;3.43;;;;;;;;;;5067052;28;20227;-61
2021/08/17 03:38:23;;;;;;;6.57;3.77;;;;;;;;;;5048237;28;20231;-61
2021/08/17 03:40:49;;;;;;;8.87;4.30;;;;;;;;;;5067690;28;20305;-61
2021/08/17 03:43:14;;;;;;;11.83;4.30;;;;;;;;;;5065193;28;20239;-61
2021/08/17 03:45:40;;;;;;;9.20;3.87;;;;;;;;;;5065976;28;20215;-60
2021/08/17 03:48:05;;;;;;;8.17;3.50;;;;;;;;;;5068882;28;20231;-61
2021/08/17 03:50:30;;;;;;;7.47;3.70;;;;;;;;;;5061736;28;20678;-61
2021/08/17 03:52:56;;;;;;;6.53;4.33;;;;;;;;;;5060559;28;20228;-61
2021/08/17 03:55:21;;;;;;;5.93;3.13;;;;;;;;;;5074127;28;20706;-61
2021/08/17 03:57:48;;;;;;;6.30;2.77;;;;;;;;;;5061082;28;20217;-61
2021/08/17 04:00:15;;;;;;;6.03;3.93;;;;;;;;;;5067571;28;20232;-61
2021/08/17 04:02:41;;;;;;;5.80;3.60;;;;;;;;;;5066213;28;20463;-61
2021/08/17 04:05:07;;;;;;;4.40;3.50;;;;;;;;;;5060899;28;20961;-61
2021/08/17 04:07:33;;;;;;;6.33;3.73;;;;;;;;;;5061041;28;20464;-62
2021/08/17 04:09:59;;;;;;;7.30;4.23;;;;;;;;;;5067892;28;20479;-61
2021/08/17 04:12:24;;;;;;;4.53;3.07;;;;;;;;;;5067185;28;20219;-60
2021/08/17 04:14:49;;;;;;;5.57;3.43;;;;;;;;;;5060220;28;20469;-61
2021/08/17 04:17:14;;;;;;;6.80;3.20;;;;;;;;;;5062233;28;20287;-60
2021/08/17 04:19:40;;;;;;;5.93;3.47;;;;;;;;;;5067481;28;20221;-60
2021/08/17 04:22:06;;;;;;;5.57;4.10;;;;;;;;;;5066185;28;20530;-60
2021/08/17 04:24:31;;;;;;;4.47;3.40;;;;;;;;;;5068455;28;20652;-60
2021/08/17 04:26:57;;;;;;;3.10;2.53;;;;;;;;;;5065645;28;20473;-62
2021/08/17 04:29:22;;;;;;;4.57;3.00;;;;;;;;;;5060312;28;20238;-61
2021/08/17 04:31:47;;;;;;;4.70;3.60;;;;;;;;;;5061678;28;20573;-60
2021/08/17 04:34:13;;;;;;;4.80;3.93;;;;;;;;;;5067433;28;20217;-61
2021/08/17 04:36:38;;;;;;;7.20;3.10;;;;;;;;;;5066169;28;20231;-61
2021/08/17 04:39:03;;;;;;;4.73;3.23;;;;;;;;;;5058602;28;20224;-61
2021/08/17 04:41:28;;;;;;;7.33;4.37;;;;;;;;;;5061325;28;20225;-61
2021/08/17 04:43:54;;;;;;;6.50;3.17;;;;;;;;;;5067957;28;20213;-60
2021/08/17 04:46:19;;;;;;;7.50;3.70;;;;;;;;;;5064398;28;20725;-60
2021/08/17 04:48:44;;;;;;;4.50;3.50;;;;;;;;;;5070840;28;20671;-60
2021/08/17 04:51:10;;;;;;;10.17;3.60;;;;;;;;;;5069498;28;20229;-61
2021/08/17 04:53:39;;;;;;;8.20;3.30;;;;;;;;;;5064059;28;20281;-61
2021/08/17 04:56:04;;;;;;;5.57;3.20;;;;;;;;;;5077210;28;20715;-61
2021/08/17 04:58:29;;;;;;;5.93;3.20;;;;;;;;;;5064634;28;20552;-61
2021/08/17 05:00:55;;;;;;;8.23;3.50;;;;;;;;;;5065178;28;20304;-61
2021/08/17 05:03:22;;;;;;;9.10;3.90;;;;;;;;;;5070407;28;20671;-61
2021/08/17 05:05:48;;;;;;;4.57;3.23;;;;;;;;;;5069858;28;20250;-61
2021/08/17 05:08:13;;;;;;;5.77;3.20;;;;;;;;;;5064487;28;20467;-61
2021/08/17 05:10:38;;;;;;;4.40;3.50;;;;;;;;;;5065379;28;20316;-61
2021/08/17 05:13:04;;;;;;;7.10;3.37;;;;;;;;;;5069871;28;20235;-61
2021/08/17 05:15:30;;;;;;;11.07;4.13;;;;;;;;;;5069540;28;20224;-61
2021/08/17 05:17:55;;;;;;;8.97;3.50;;;;;;;;;;5059872;28;20221;-61
2021/08/17 05:20:21;;;;;;;5.53;3.00;;;;;;;;;;5066237;28;20513;-61
2021/08/17 05:22:46;;;;;;;11.43;4.00;;;;;;;;;;5075383;28;20224;-60
2021/08/17 05:25:12;;;;;;;5.30;3.20;;;;;;;;;;5064793;28;20711;-61
2021/08/17 05:27:37;;;;;;;4.47;2.90;;;;;;;;;;5069838;28;20249;-61
2021/08/17 05:30:05;;;;;;;4.93;3.43;;;;;;;;;;5068443;28;20236;-61
2021/08/17 05:32:30;;;;;;;6.97;3.43;;;;;;;;;;5063515;28;20310;-61
2021/08/17 05:34:55;;;;;;;7.17;3.80;;;;;;;;;;5064671;28;20550;-62
2021/08/17 05:37:20;;;;;;;6.23;3.70;;;;;;;;;;5064832;28;20237;-61
2021/08/17 05:39:46;;;;;;;4.30;3.00;;;;;;;;;;5060190;28;20629;-60
2021/08/17 05:42:11;;;;;;;7.73;3.40;;;;;;;;;;5063268;28;20228;-61
2021/08/17 05:44:41;;;;;;;5.63;3.20;;;;;;;;;;5072349;28;20250;-61
2021/08/17 05:47:06;;;;;;;6.50;3.50;;;;;;;;;;5062553;28;20224;-61
2021/08/17 05:49:32;;;;;;;7.20;3.53;;;;;;;;;;5063629;28;20544;-61
2021/08/17 05:51:57;;;;;;;5.13;3.27;;;;;;;;;;5069230;28;20277;-61
2021/08/17 05:54:23;;;;;;;7.30;3.47;;;;;;;;;;5069044;28;20228;-60
2021/08/17 05:56:49;;;;;;;7.50;3.83;;;;;;;;;;5061794;28;20228;-61
2021/08/17 05:59:14;;;;;;;3.87;3.00;;;;;;;;;;5064770;28;20914;-62
2021/08/17 06:01:39;;;;;;;8.80;3.33;;;;;;;;;;5070096;28;20607;-60
2021/08/17 06:04:05;;;;;;;7.70;3.50;;;;;;;;;;5068489;28;20316;-61
2021/08/17 06:06:30;;;;;;;7.90;3.73;;;;;;;;;;5063069;28;20572;-61
2021/08/17 06:08:55;;;;;;;5.33;3.97;;;;;;;;;;5064592;28;20270;-61
2021/08/17 06:11:20;;;;;;;10.60;5.43;;;;;;;;;;5070273;28;20665;-61
2021/08/17 06:13:47;;;;;;;11.97;4.53;;;;;;;;;;5067522;28;20366;-62
2021/08/17 06:16:13;;;;;;;8.50;5.10;;;;;;;;;;5063186;28;20283;-61
2021/08/17 06:18:38;;;;;;;7.23;4.00;;;;;;;;;;5065323;28;20467;-61
2021/08/17 06:21:03;;;;;;;4.73;3.47;;;;;;;;;;5067473;28;20683;-62
2021/08/17 06:23:28;;;;;;;9.47;4.60;;;;;;;;;;5076058;28;20220;-62
2021/08/17 06:25:54;;;;;;;7.40;3.80;;;;;;;;;;5061980;28;20248;-62
2021/08/17 06:28:19;;;;;;;8.33;4.50;;;;;;;;;;5065699;28;20221;-61
2021/08/17 06:30:45;;;;;;;14.77;5.60;;;;;;;;;;5069576;28;20320;-61
2021/08/17 06:33:10;;;;;;;9.77;4.20;;;;;;;;;;5066222;28;20231;-61
2021/08/17 06:35:35;;;;;;;7.13;3.53;;;;;;;;;;5062681;28;20525;-60
2021/08/17 06:38:01;;;;;;;10.00;4.33;;;;;;;;;;5053639;28;20226;-61
2021/08/17 06:40:26;;;;;;;6.60;3.87;;;;;;;;;;5066561;28;20221;-60
2021/08/17 06:42:52;;;;;;;11.47;4.20;;;;;;;;;;5064618;28;20221;-61
2021/08/17 06:45:17;;;;;;;6.43;3.80;;;;;;;;;;5069387;28;20286;-60
2021/08/17 06:47:47;;;;;;;9.90;4.57;;;;;;;;;;5064866;28;20458;-61
2021/08/17 06:50:12;;;;;;;8.90;3.70;;;;;;;;;;5061602;28;20220;-61
2021/08/17 06:52:37;;;;;;;5.97;4.30;;;;;;;;;;5065337;28;20849;-61
2021/08/17 06:55:03;;;;;;;6.83;4.07;;;;;;;;;;5068719;28;20248;-60
2021/08/17 06:57:29;;;;;;;9.87;3.77;;;;;;;;;;5065908;28;20254;-62
2021/08/17 06:59:54;;;;;;;8.23;3.67;;;;;;;;;;5061504;28;20297;-61
2021/08/17 07:02:19;;;;;;;8.37;3.73;;;;;;;;;;5066333;28;20221;-61
2021/08/17 07:04:44;;;;;;;8.23;4.47;;;;;;;;;;5068249;28;20724;-62
2021/08/17 07:07:09;;;;;;;6.67;3.83;;;;;;;;;;5063274;28;20230;-60
2021/08/17 07:09:35;;;;;;;7.97;4.00;;;;;;;;;;5061598;28;20249;-61
2021/08/17 07:12:00;;;;;;;13.03;3.13;;;;;;;;;;5066568;28;20236;-62
2021/08/17 07:14:25;;;;;;;8.23;4.00;;;;;;;;;;5069785;28;20255;-61
2021/08/17 07:16:51;;;;;;;7.53;3.70;;;;;;;;;;5061661;28;20576;-61
2021/08/17 07:19:16;;;;;;;5.07;3.30;;;;;;;;;;5073710;28;20232;-61
2021/08/17 07:21:41;;;;;;;6.00;3.60;;;;;;;;;;5061277;28;20588;-61
2021/08/17 07:24:07;;;;;;;6.93;3.70;;;;;;;;;;5074544;28;20255;-61
2021/08/17 07:26:32;;;;;;;8.63;3.70;;;;;;;;;;5062384;28;20664;-60
2021/08/17 07:28:57;;;;;;;6.53;3.67;;;;;;;;;;5061182;28;20540;-60
2021/08/17 07:31:22;;;;;;;9.00;4.43;;;;;;;;;;5068304;28;20312;-61
2021/08/17 07:33:48;;;;;;;5.10;3.93;;;;;;;;;;5068617;28;20547;-61
2021/08/17 07:36:13;;;;;;;10.83;3.73;;;;;;;;;;5061208;28;20224;-61
2021/08/17 07:38:38;;;;;;;5.87;3.00;;;;;;;;;;5048161;28;20618;-61
2021/08/17 07:41:03;;;;;;;8.73;4.03;;;;;;;;;;5065747;28;20225;-61
2021/08/17 07:43:29;;;;;;;10.77;3.87;;;;;;;;;;5065976;28;20209;-61
2021/08/17 07:45:54;;;;;;;6.53;3.57;;;;;;;;;;5065790;28;20240;-60
2021/08/17 07:48:19;;;;;;;6.53;3.63;;;;;;;;;;5068468;28;20243;-61
2021/08/17 07:50:45;;;;;;;9.17;2.90;;;;;;;;;;5063998;28;20553;-61
2021/08/17 07:53:10;;;;;;;7.73;4.07;;;;;;;;;;5060050;28;20221;-62
2021/08/17 07:55:36;;;;;;;6.97;3.47;;;;;;;;;;5067397;28;20225;-61
2021/08/17 07:58:01;;;;;;;5.40;3.50;;;;;;;;;;5067543;28;20212;-60
2021/08/17 08:00:27;;;;;;;6.63;3.47;;;;;;;;;;5061991;28;20656;-61
2021/08/17 08:02:52;;;;;;;6.37;3.80;;;;;;;;;;5050747;28;20221;-62
2021/08/17 08:05:17;;;;;;;6.40;3.43;;;;;;;;;;5048918;28;20224;-61
2021/08/17 08:07:42;;;;;;;5.00;3.07;;;;;;;;;;5042729;28;20228;-60
2021/08/17 08:10:08;;;;;;;5.37;2.93;;;;;;;;;;5067300;28;20235;-62
2021/08/17 08:12:34;;;;;;;9.50;4.17;;;;;;;;;;5062304;28;20241;-61
2021/08/17 08:14:59;;;;;;;6.30;4.00;;;;;;;;;;5054390;28;20346;-61
2021/08/17 08:17:24;;;;;;;9.83;4.03;;;;;;;;;;5060967;28;20228;-61
2021/08/17 08:19:49;;;;;;;8.43;3.83;;;;;;;;;;5046110;28;20237;-61
2021/08/17 08:22:15;;;;;;;10.87;5.23;;;;;;;;;;5056108;28;20307;-60
2021/08/17 08:24:40;;;;;;;7.30;4.13;;;;;;;;;;5072902;28;20221;-61
2021/08/17 08:27:05;;;;;;;7.43;4.20;;;;;;;;;;5071479;28;20223;-60
2021/08/17 08:29:31;;;;;;;12.53;5.57;;;;;;;;;;5064930;28;20568;-61
2021/08/17 08:31:56;;;;;;;8.67;4.50;;;;;;;;;;5065591;28;20228;-62
2021/08/17 08:34:21;;;;;;;8.00;5.87;;;;;;;;;;5071712;28;20296;-61
2021/08/17 08:36:47;;;;;;;7.80;4.70;;;;;;;;;;5056660;28;20740;-60
2021/08/17 08:39:12;;;;;;;8.20;6.37;;;;;;;;;;5063716;28;20324;-63
2021/08/17 08:41:39;;;;;;;11.13;5.00;;;;;;;;;;5068234;28;20232;-61
2021/08/17 08:44:04;;;;;;;9.60;5.87;;;;;;;;;;5046313;28;20247;-62
2021/08/17 08:46:30;;;;;;;9.20;4.93;;;;;;;;;;5070420;28;20468;-62
2021/08/17 08:48:55;;;;;;;10.10;8.37;;;;;;;;;;5071278;28;20666;-61
2021/08/17 08:51:21;;;;;;;7.67;5.10;;;;;;;;;;5065172;28;20318;-61
2021/08/17 08:53:48;;;;;;;6.57;4.50;;;;;;;;;;5064135;28;20269;-62
2021/08/17 08:56:14;;;;;;;12.53;7.07;;;;;;;;;;5072057;28;20467;-61
2021/08/17 08:59:03;;;;;;;7.20;5.67;;;;;;;;;;5064935;28;20481;-62
2021/08/17 09:02:21;;;;;;;8.80;6.57;;;;;;;;;;5045165;28;20476;-62
2021/08/17 09:04:54;;;;;;;11.93;6.63;;;;;;;;;;5036302;28;20493;-62
2021/08/17 09:07:37;;;;;;;13.90;6.10;;;;;;;;;;5062360;28;20481;-61
2021/08/17 09:10:06;;;;;;;8.70;5.33;;;;;;;;;;5063415;28;20521;-62
2021/08/17 09:12:37;;;;;;;7.27;4.03;;;;;;;;;;5055357;28;20471;-62
2021/08/17 09:15:27;;;;;;;5.97;4.03;;;;;;;;;;5064030;28;20478;-62
2021/08/17 09:18:04;;;;;;;16.73;7.30;;;;;;;;;;5064100;28;20864;-61
2021/08/17 09:20:43;;;;;;;14.47;8.60;;;;;;;;;;5070632;28;20467;-61
2021/08/17 09:23:40;;;;;;;13.53;7.47;;;;;;;;;;5077362;28;20453;-63
2021/08/17 09:26:24;;;;;;;6.80;5.13;;;;;;;;;;5059784;28;20513;-59
2021/08/17 09:28:55;;;;;;;9.03;6.63;;;;;;;;;;5051969;28;20462;-60
2021/08/17 09:31:48;;;;;;;9.23;6.13;;;;;;;;;;5062428;28;20471;-60
2021/08/17 09:37:27;;;;;;;9.23;6.20;;;;;;;;;;5039591;28;20550;-60
2021/08/17 09:39:54;;;;;;;10.30;6.77;;;;;;;;;;5062171;28;20471;-59
2021/08/17 09:42:25;;;;;;;9.00;6.03;;;;;;;;;;5062416;28;20534;-61
2021/08/17 09:45:04;;;;;;;10.30;6.17;;;;;;;;;;5048969;28;20463;-60
2021/08/17 09:47:30;;;;;;;11.87;6.33;;;;;;;;;;5062262;28;20539;-60
2021/08/17 09:50:23;;;;;;;9.53;5.30;;;;;;;;;;5067815;28;20487;-61
2021/08/17 09:53:24;;;;;;;10.20;6.77;;;;;;;;;;5069057;28;20229;-60
2021/08/17 09:55:55;;;;;;;13.23;5.10;;;;;;;;;;5058388;28;20479;-60
2021/08/17 09:58:39;;;;;;;7.93;5.53;;;;;;;;;;5065071;28;20472;-60
2021/08/17 10:01:06;;;;;;;12.40;6.50;;;;;;;;;;5068894;28;20494;-59
2021/08/17 10:03:32;;;;;;;8.20;4.90;;;;;;;;;;5067302;28;20459;-60
2021/08/17 10:05:57;;;;;;;10.10;5.20;;;;;;;;;;5060750;28;20474;-60
2021/08/17 10:08:26;;;;;;;9.30;5.83;;;;;;;;;;5063209;28;20225;-59
2021/08/17 10:10:53;;;;;;;13.30;6.00;;;;;;;;;;5066743;28;20221;-59
2021/08/17 10:13:20;;;;;;;14.50;6.50;;;;;;;;;;5055285;28;20577;-60
2021/08/17 10:15:47;;;;;;;10.47;5.47;;;;;;;;;;5058204;28;20489;-59
2021/08/17 10:18:15;;;;;;;12.03;5.77;;;;;;;;;;5062070;28;20451;-60
2021/08/17 10:20:45;;;;;;;7.50;4.30;;;;;;;;;;5047787;28;20477;-61
2021/08/17 10:23:17;;;;;;;13.00;6.87;;;;;;;;;;5061262;28;20458;-60
2021/08/17 10:25:50;;;;;;;8.90;5.10;;;;;;;;;;5067023;28;20797;-59
2021/08/17 10:28:31;;;;;;;15.70;6.10;;;;;;;;;;5067828;28;20482;-61
2021/08/17 10:31:18;;;;;;;9.87;5.27;;;;;;;;;;5066232;28;20473;-60
2021/08/17 10:33:51;;;;;;;9.10;5.07;;;;;;;;;;5052745;28;20937;-59
2021/08/17 10:36:32;;;;;;;8.57;5.40;;;;;;;;;;5060060;28;20514;-60
2021/08/17 10:38:58;;;;;;;6.77;4.53;;;;;;;;;;5062459;28;20803;-61
2021/08/17 10:41:29;;;;;;;10.73;7.70;;;;;;;;;;5057147;28;20478;-60
2021/08/17 10:44:15;;;;;;;8.83;6.07;;;;;;;;;;5053199;28;20479;-59
2021/08/17 10:46:47;;;;;;;15.10;10.63;;;;;;;;;;5041785;28;20976;-59
2021/08/17 10:49:32;;;;;;;15.50;7.27;;;;;;;;;;5062312;28;20442;-60
2021/08/17 10:52:06;;;;;;;12.13;9.63;;;;;;;;;;5072114;28;20541;-60
2021/08/17 10:54:37;;;;;;;12.27;8.47;;;;;;;;;;5048832;28;20459;-60
2021/08/17 10:57:22;;;;;;;12.60;5.93;;;;;;;;;;5067637;28;20475;-61
2021/08/17 10:59:49;;;;;;;9.40;5.70;;;;;;;;;;5056939;28;20471;-61
2021/08/17 11:02:15;;;;;;;13.93;6.10;;;;;;;;;;5057524;28;20462;-59
2021/08/17 11:04:44;;;;;;;9.27;6.27;;;;;;;;;;5052873;28;20551;-60
2021/08/17 11:07:31;;;;;;;6.67;4.80;;;;;;;;;;5042889;28;20270;-60
2021/08/17 11:09:58;;;;;;;14.43;5.53;;;;;;;;;;5060376;28;20479;-61
2021/08/17 11:12:50;;;;;;;9.20;6.07;;;;;;;;;;5057480;28;20459;-60
2021/08/17 11:15:15;;;;;;;6.27;4.63;;;;;;;;;;5059677;28;20600;-61
2021/08/17 11:17:41;;;;;;;11.00;5.20;;;;;;;;;;5065100;28;20524;-61
2021/08/17 11:20:07;;;;;;;8.00;6.00;;;;;;;;;;5068214;28;20217;-62
2021/08/17 11:22:36;;;;;;;11.33;4.97;;;;;;;;;;5061002;28;20599;-62
2021/08/17 11:25:07;;;;;;;6.57;5.03;;;;;;;;;;5062053;28;20224;-61
2021/08/17 11:27:38;;;;;;;10.83;6.87;;;;;;;;;;5065436;28;20546;-62
2021/08/17 11:30:07;;;;;;;14.73;6.77;;;;;;;;;;5068874;28;20478;-62
2021/08/17 11:32:44;;;;;;;8.23;4.90;;;;;;;;;;5067799;28;20466;-61
2021/08/17 11:35:17;;;;;;;9.67;5.57;;;;;;;;;;5048145;28;20458;-62
2021/08/17 11:37:45;;;;;;;11.67;6.20;;;;;;;;;;5059022;28;20555;-62
2021/08/17 11:40:16;;;;;;;11.90;7.60;;;;;;;;;;5054661;28;20472;-62
2021/08/17 11:42:43;;;;;;;11.17;6.80;;;;;;;;;;5068476;28;20938;-63
2021/08/17 11:45:10;;;;;;;13.07;9.70;;;;;;;;;;5053762;28;20465;-62
2021/08/17 11:47:37;;;;;;;10.53;5.30;;;;;;;;;;5061424;28;20844;-61
2021/08/17 11:50:06;;;;;;;13.50;7.60;;;;;;;;;;5065237;28;20464;-62
2021/08/17 11:52:35;;;;;;;17.03;7.43;;;;;;;;;;5068617;28;20962;-61
2021/08/17 11:55:07;;;;;;;8.60;7.20;;;;;;;;;;5064107;28;20937;-61
2021/08/17 11:57:37;;;;;;;11.20;8.67;;;;;;;;;;5061066;28;20490;-61
2021/08/17 12:00:07;;;;;;;14.30;9.47;;;;;;;;;;5061703;28;20478;-61
2021/08/17 12:02:33;;;;;;;18.57;10.27;;;;;;;;;;5053981;28;20975;-61
2021/08/17 12:05:01;;;;;;;14.83;8.87;;;;;;;;;;5064699;28;20596;-61
2021/08/17 12:07:30;;;;;;;14.60;8.00;;;;;;;;;;5060938;28;20590;-62
2021/08/17 12:10:14;;;;;;;16.57;7.67;;;;;;;;;;5054958;28;20472;-62
2021/08/17 12:12:58;;;;;;;18.13;10.20;;;;;;;;;;5060532;28;20479;-62
2021/08/17 12:15:32;;;;;;;9.63;7.77;;;;;;;;;;5059999;28;20825;-63
2021/08/17 12:18:13;;;;;;;12.00;6.70;;;;;;;;;;5061847;28;20466;-62
2021/08/17 12:20:56;;;;;;;12.00;8.20;;;;;;;;;;5047046;28;20478;-62
2021/08/17 12:23:32;;;;;;;10.13;5.23;;;;;;;;;;5058928;28;20765;-62
2021/08/17 12:26:12;;;;;;;12.37;8.90;;;;;;;;;;5062455;28;20455;-62
2021/08/17 12:28:38;;;;;;;8.80;7.10;;;;;;;;;;5068234;28;20459;-62
2021/08/17 12:31:15;;;;;;;12.53;5.80;;;;;;;;;;5065681;28;20459;-61
2021/08/17 12:34:33;;;;;;;13.53;7.00;;;;;;;;;;5059864;28;20656;-62
2021/08/17 12:37:37;;;;;;;7.57;5.40;;;;;;;;;;5026390;28;20966;-62
2021/08/17 12:40:53;;;;;;;9.63;6.63;;;;;;;;;;5046258;28;20463;-62
2021/08/17 12:43:25;;;;;;;10.70;7.00;;;;;;;;;;5042082;28;20451;-60
2021/08/17 12:45:51;;;;;;;13.57;6.43;;;;;;;;;;5066531;28;20459;-61
2021/08/17 12:48:18;;;;;;;12.80;6.73;;;;;;;;;;5061779;28;20822;-62
2021/08/17 12:50:45;;;;;;;11.93;5.93;;;;;;;;;;5059957;28;20248;-62
2021/08/17 12:53:24;;;;;;;8.03;6.83;;;;;;;;;;5065434;28;20900;-61
2021/08/17 12:55:51;;;;;;;9.00;5.47;;;;;;;;;;5066890;28;20487;-61
2021/08/17 12:58:18;;;;;;;9.80;5.83;;;;;;;;;;5064188;28;20878;-62
2021/08/17 13:00:44;;;;;;;8.00;5.50;;;;;;;;;;5059015;28;20467;-61
2021/08/17 13:03:09;;;;;;;15.17;6.67;;;;;;;;;;5062924;28;20546;-61
2021/08/17 13:05:35;;;;;;;9.83;4.90;;;;;;;;;;5067657;28;20224;-61
2021/08/17 13:08:00;;;;;;;12.23;5.20;;;;;;;;;;5056587;28;20225;-61
2021/08/17 13:10:25;;;;;;;9.37;4.70;;;;;;;;;;5068695;28;20307;-63
2021/08/17 13:12:51;;;;;;;11.70;5.83;;;;;;;;;;5045767;28;20271;-61
2021/08/17 13:15:18;;;;;;;8.27;5.27;;;;;;;;;;5071476;28;20249;-61
2021/08/17 13:17:44;;;;;;;11.10;5.37;;;;;;;;;;5066678;28;20229;-62
2021/08/17 13:20:12;;;;;;;8.27;4.97;;;;;;;;;;5058725;28;20482;-61
2021/08/17 13:22:37;;;;;;;12.33;5.70;;;;;;;;;;5067279;28;20225;-62
2021/08/17 13:25:03;;;;;;;9.27;5.90;;;;;;;;;;5069661;28;20463;-61
2021/08/17 13:27:29;;;;;;;9.70;5.80;;;;;;;;;;5065820;28;20489;-62
2021/08/17 13:29:55;;;;;;;10.60;6.03;;;;;;;;;;5062183;28;20233;-62
2021/08/17 13:32:21;;;;;;;11.57;5.40;;;;;;;;;;5066849;28;20467;-61
2021/08/17 13:34:46;;;;;;;14.50;5.80;;;;;;;;;;5069745;28;20712;-61
2021/08/17 13:37:11;;;;;;;9.23;5.33;;;;;;;;;;5064288;28;20308;-61
2021/08/17 13:39:37;;;;;;;8.50;4.00;;;;;;;;;;5062511;28;20281;-61
2021/08/17 13:42:03;;;;;;;15.80;5.87;;;;;;;;;;5064770;28;20228;-61
2021/08/17 13:44:29;;;;;;;8.47;6.30;;;;;;;;;;5061806;28;20220;-62
2021/08/17 13:46:54;;;;;;;9.50;4.43;;;;;;;;;;5065298;28;20474;-60
2021/08/17 13:49:19;;;;;;;11.40;6.37;;;;;;;;;;5058676;28;20610;-61
2021/08/17 13:51:44;;;;;;;8.03;6.20;;;;;;;;;;5065764;28;20244;-60
2021/08/17 13:54:10;;;;;;;9.70;4.73;;;;;;;;;;5067263;28;20263;-61
2021/08/17 13:56:35;;;;;;;11.43;5.53;;;;;;;;;;5038321;28;20240;-60
2021/08/17 13:59:01;;;;;;;9.17;5.27;;;;;;;;;;5048052;28;20294;-61
2021/08/17 14:01:26;;;;;;;7.10;4.50;;;;;;;;;;5037885;28;20229;-61
2021/08/17 14:03:51;;;;;;;8.70;5.40;;;;;;;;;;5043953;28;20235;-62
2021/08/17 14:06:17;;;;;;;8.23;4.90;;;;;;;;;;5051917;28;20298;-60
2021/08/17 14:08:43;;;;;;;7.47;5.00;;;;;;;;;;5068047;28;20224;-61
2021/08/17 14:11:09;;;;;;;9.90;6.10;;;;;;;;;;5065764;28;20213;-60
2021/08/17 14:13:34;;;;;;;6.20;4.57;;;;;;;;;;5064101;28;20473;-60
2021/08/17 14:16:02;;;;;;;11.67;6.43;;;;;;;;;;5066502;28;20279;-60
2021/08/17 14:18:33;;;;;;;9.60;6.00;;;;;;;;;;5067826;28;20266;-60
2021/08/17 14:21:00;;;;;;;10.63;5.00;;;;;;;;;;5063798;28;20493;-61
2021/08/17 14:23:30;;;;;;;8.83;4.97;;;;;;;;;;5070165;28;20459;-61
2021/08/17 14:25:56;;;;;;;7.40;5.23;;;;;;;;;;5064063;28;20451;-60
2021/08/17 14:28:22;;;;;;;10.30;5.37;;;;;;;;;;5061351;28;20477;-61
2021/08/17 14:30:47;;;;;;;8.80;4.87;;;;;;;;;;5065443;28;20308;-60
2021/08/17 14:33:13;;;;;;;6.27;4.03;;;;;;;;;;5067643;28;20289;-61
2021/08/17 14:35:40;;;;;;;12.60;5.60;;;;;;;;;;5064452;28;20653;-60
2021/08/17 14:38:05;;;;;;;9.73;4.50;;;;;;;;;;5057920;28;20520;-61
2021/08/17 14:40:31;;;;;;;9.97;4.73;;;;;;;;;;5066117;28;20550;-62
2021/08/17 14:42:56;;;;;;;14.13;5.93;;;;;;;;;;5057065;28;20221;-61
2021/08/17 14:45:22;;;;;;;8.47;5.07;;;;;;;;;;5054302;28;20286;-61
2021/08/17 14:47:47;;;;;;;11.13;4.33;;;;;;;;;;5055616;28;20213;-62